createdAt,value
2023-03-26T00:01:55.356Z,96742.01
2023-03-26T00:04:25.432Z,96739.86
2023-03-26T00:06:54.347Z,96738.73
2023-03-26T00:09:22.519Z,96740.02
2023-03-26T00:11:50.942Z,96737.70
2023-03-26T00:14:19.158Z,96738.02
2023-03-26T00:16:49.894Z,96738.10
2023-03-26T00:19:18.167Z,96742.27
2023-03-26T00:21:48.484Z,96743.11
2023-03-26T00:24:17.604Z,96742.07
2023-03-26T00:26:48.784Z,96744.16
2023-03-26T00:29:17.026Z,96743.67
2023-03-26T00:31:46.651Z,96745.45
2023-03-26T00:34:18.716Z,96745.00
2023-03-26T00:36:47.415Z,96748.33
2023-03-26T00:39:17.910Z,96747.80
2023-03-26T00:41:46.769Z,96746.77
2023-03-26T00:44:14.868Z,96743.54
2023-03-26T00:46:42.940Z,96738.94
2023-03-26T00:49:14.924Z,96734.46
2023-03-26T00:51:42.928Z,96731.08
2023-03-26T00:54:12.054Z,96735.61
2023-03-26T00:56:40.161Z,96737.70
2023-03-26T00:59:11.876Z,96738.03
2023-03-26T01:01:40.281Z,96740.83
2023-03-26T01:04:31.821Z,96738.17
2023-03-26T01:07:10.913Z,96738.81
2023-03-26T01:09:45.904Z,96735.01
2023-03-26T01:12:18.731Z,96729.81
2023-03-26T01:14:49.653Z,96730.48
2023-03-26T01:17:18.821Z,96727.71
2023-03-26T01:20:15.214Z,96727.38
2023-03-26T01:22:49.618Z,96725.55
2023-03-26T01:25:18.632Z,96721.73
2023-03-26T01:27:54.664Z,96717.15
2023-03-26T01:30:43.516Z,96719.15
2023-03-26T01:33:56.658Z,96725.28
2023-03-26T01:36:38.335Z,96729.88
2023-03-26T01:39:18.719Z,96730.87
2023-03-26T01:41:57.305Z,96736.24
2023-03-26T01:44:34.092Z,96745.65
2023-03-26T01:47:03.284Z,96748.08
2023-03-26T01:49:31.972Z,96752.91
2023-03-26T01:52:00.008Z,96756.13
2023-03-26T01:54:31.734Z,96759.83
2023-03-26T01:57:16.044Z,96764.21
2023-03-26T02:00:18.228Z,96768.30
2023-03-26T02:03:08.942Z,96767.69
2023-03-26T02:05:54.696Z,96769.23
2023-03-26T02:08:36.019Z,96767.48
2023-03-26T02:11:14.331Z,96769.94
2023-03-26T02:13:45.966Z,96772.36
2023-03-26T02:16:17.244Z,96772.12
2023-03-26T02:18:51.403Z,96773.34
2023-03-26T02:21:22.351Z,96772.92
2023-03-26T02:23:58.155Z,96776.48
2023-03-26T02:26:26.273Z,96776.32
2023-03-26T02:29:02.332Z,96774.20
2023-03-26T02:31:30.646Z,96769.59
2023-03-26T02:33:58.886Z,96769.40
2023-03-26T02:36:28.154Z,96773.12
2023-03-26T02:39:00.514Z,96779.33
2023-03-26T02:41:30.426Z,96784.91
2023-03-26T02:44:02.120Z,96790.55
2023-03-26T02:46:53.734Z,96789.85
2023-03-26T02:49:40.857Z,96788.40
2023-03-26T02:52:09.844Z,96787.14
2023-03-26T02:54:38.298Z,96790.68
2023-03-26T02:57:09.339Z,96791.89
2023-03-26T02:59:52.996Z,96793.00
2023-03-26T03:02:41.437Z,96796.00
2023-03-26T03:05:29.001Z,96800.67
2023-03-26T03:08:22.070Z,96803.88
2023-03-26T03:11:14.838Z,96805.05
2023-03-26T03:13:51.032Z,96806.70
2023-03-26T03:16:27.808Z,96809.58
2023-03-26T03:18:58.022Z,96809.12
2023-03-26T03:21:29.335Z,96811.18
2023-03-26T03:23:59.987Z,96808.77
2023-03-26T03:26:30.550Z,96805.09
2023-03-26T03:29:00.972Z,96803.78
2023-03-26T03:31:29.273Z,96804.48
2023-03-26T03:34:01.472Z,96804.39
2023-03-26T03:36:33.167Z,96802.55
2023-03-26T03:39:08.920Z,96802.07
2023-03-26T03:41:37.711Z,96800.69
2023-03-26T03:44:08.037Z,96805.73
2023-03-26T03:46:36.780Z,96806.03
2023-03-26T03:49:05.206Z,96808.43
2023-03-26T03:51:37.268Z,96807.77
2023-03-26T03:54:11.677Z,96810.40
2023-03-26T03:57:00.167Z,96808.05
2023-03-26T03:59:47.445Z,96809.08
2023-03-26T04:02:35.203Z,96812.70
2023-03-26T04:05:06.320Z,96818.30
2023-03-26T04:07:35.934Z,96818.30
2023-03-26T04:10:08.890Z,96817.70
2023-03-26T04:12:55.526Z,96818.14
2023-03-26T04:15:36.717Z,96819.72
2023-03-26T04:18:10.497Z,96823.79
2023-03-26T04:20:42.135Z,96822.85
2023-03-26T04:23:14.341Z,96822.20
2023-03-26T04:25:43.787Z,96823.19
2023-03-26T04:28:46.529Z,96825.27
2023-03-26T04:31:29.141Z,96822.48
2023-03-26T04:34:05.761Z,96829.09
2023-03-26T04:36:35.502Z,96834.04
2023-03-26T04:39:05.349Z,96834.18
2023-03-26T04:41:59.096Z,96837.07
2023-03-26T04:44:32.081Z,96841.23
2023-03-26T04:47:08.140Z,96839.73
2023-03-26T04:49:42.885Z,96841.45
2023-03-26T04:52:12.972Z,96841.58
2023-03-26T04:54:59.797Z,96847.98
2023-03-26T04:57:39.740Z,96848.44
2023-03-26T05:00:17.648Z,96850.25
2023-03-26T05:02:50.525Z,96852.49
2023-03-26T05:05:19.118Z,96849.93
2023-03-26T05:07:47.374Z,96848.20
2023-03-26T05:10:17.400Z,96843.29
2023-03-26T05:12:52.476Z,96843.33
2023-03-26T05:15:28.999Z,96841.75
2023-03-26T05:18:10.737Z,96838.89
2023-03-26T05:20:42.482Z,96839.67
2023-03-26T05:23:11.131Z,96841.79
2023-03-26T05:25:42.800Z,96842.05
2023-03-26T05:28:16.077Z,96845.59
2023-03-26T05:30:54.458Z,96845.40
2023-03-26T05:33:24.025Z,96847.77
2023-03-26T05:36:01.382Z,96845.09
2023-03-26T05:38:31.200Z,96844.73
2023-03-26T05:41:06.278Z,96849.27
2023-03-26T05:43:35.539Z,96847.20
2023-03-26T05:46:33.134Z,96846.59
2023-03-26T05:49:01.577Z,96845.39
2023-03-26T05:51:32.205Z,96851.11
2023-03-26T05:54:13.579Z,96848.73
2023-03-26T05:57:01.857Z,96846.27
2023-03-26T05:59:53.546Z,96843.80
2023-03-26T06:02:40.137Z,96841.59
2023-03-26T06:05:27.379Z,96841.11
2023-03-26T06:08:16.143Z,96837.96
2023-03-26T06:10:51.613Z,96830.39
2023-03-26T06:13:19.859Z,96829.14
2023-03-26T06:15:50.518Z,96830.72
2023-03-26T06:18:26.994Z,96828.14
2023-03-26T06:21:27.628Z,96829.50
2023-03-26T06:24:05.080Z,96831.85
2023-03-26T06:26:49.126Z,96840.27
2023-03-26T06:29:40.446Z,96837.38
2023-03-26T06:32:40.975Z,96832.00
2023-03-26T06:35:12.638Z,96834.73
2023-03-26T06:37:42.550Z,96831.81
2023-03-26T06:40:11.984Z,96840.34
2023-03-26T06:43:09.477Z,96844.20
2023-03-26T06:45:52.450Z,96851.13
2023-03-26T06:48:26.223Z,96850.56
2023-03-26T06:51:17.610Z,96850.36
2023-03-26T06:54:15.513Z,96848.59
2023-03-26T06:57:10.070Z,96848.05
2023-03-26T07:00:06.151Z,96846.45
2023-03-26T07:02:53.023Z,96850.55
2023-03-26T07:05:43.743Z,96853.64
2023-03-26T07:08:41.005Z,96853.68
2023-03-26T07:11:27.538Z,96855.67
2023-03-26T07:14:18.609Z,96852.45
2023-03-26T07:17:04.615Z,96852.38
2023-03-26T07:19:54.080Z,96855.11
2023-03-26T07:22:26.133Z,96859.13
2023-03-26T07:25:14.496Z,96862.33
2023-03-26T07:28:20.661Z,96866.23
2023-03-26T07:31:07.054Z,96872.40
2023-03-26T07:34:08.273Z,96876.21
2023-03-26T07:37:07.503Z,96876.73
2023-03-26T07:40:09.669Z,96877.59
2023-03-26T07:44:12.654Z,96880.77
2023-03-26T07:46:55.974Z,96881.52
2023-03-26T07:49:43.519Z,96875.65
2023-03-26T07:52:31.763Z,96877.33
2023-03-26T07:55:15.643Z,96876.27
2023-03-26T07:58:20.946Z,96879.24
2023-03-26T08:01:35.022Z,96875.63
2023-03-26T08:04:26.475Z,96871.36
2023-03-26T08:07:45.367Z,96875.23
2023-03-26T08:10:32.879Z,96866.00
2023-03-26T08:13:25.552Z,96857.63
2023-03-26T08:16:08.206Z,96860.05
2023-03-26T08:19:03.359Z,96863.55
2023-03-26T08:21:39.848Z,96864.73
2023-03-26T08:24:30.626Z,96861.03
2023-03-26T08:27:02.700Z,96855.33
2023-03-26T08:29:59.850Z,96857.05
2023-03-26T08:32:28.553Z,96854.98
2023-03-26T08:34:57.627Z,96851.98
2023-03-26T08:37:27.374Z,96850.29
2023-03-26T08:39:55.778Z,96848.51
2023-03-26T08:42:36.876Z,96844.48
2023-03-26T08:45:11.623Z,96839.70
2023-03-26T08:48:17.995Z,96835.35
2023-03-26T08:51:07.968Z,96828.24
2023-03-26T08:53:59.995Z,96832.88
2023-03-26T08:56:49.743Z,96833.33
2023-03-26T08:59:35.468Z,96830.95
2023-03-26T09:02:43.470Z,96832.36
2023-03-26T09:05:36.371Z,96833.42
2023-03-26T09:08:22.514Z,96834.38
2023-03-26T09:11:03.358Z,96830.74
2023-03-26T09:13:45.430Z,96833.03
2023-03-26T09:16:31.914Z,96835.30
2023-03-26T09:19:15.735Z,96834.65
2023-03-26T09:22:11.702Z,96827.23
2023-03-26T09:25:00.698Z,96823.25
2023-03-26T09:27:47.634Z,96829.02
2023-03-26T09:30:39.865Z,96827.35
2023-03-26T09:33:23.565Z,96828.98
2023-03-26T09:35:55.268Z,96832.85
2023-03-26T09:38:58.651Z,96832.16
2023-03-26T09:41:36.501Z,96837.54
2023-03-26T09:44:04.457Z,96839.23
2023-03-26T09:46:51.211Z,96838.11
2023-03-26T09:49:39.542Z,96841.85
2023-03-26T09:52:25.485Z,96843.17
2023-03-26T09:55:15.245Z,96839.65
2023-03-26T09:57:59.735Z,96835.64
2023-03-26T10:01:01.200Z,96832.71
2023-03-26T10:03:35.069Z,96827.03
2023-03-26T10:06:06.913Z,96824.31
2023-03-26T10:08:55.973Z,96821.55
2023-03-26T10:11:29.077Z,96824.25
2023-03-26T10:14:23.760Z,96820.59
2023-03-26T10:17:20.720Z,96817.05
2023-03-26T10:20:04.928Z,96810.10
2023-03-26T10:22:53.468Z,96821.11
2023-03-26T10:25:31.118Z,96817.14
2023-03-26T10:28:21.206Z,96809.57
2023-03-26T10:31:24.199Z,96808.05
2023-03-26T10:34:28.360Z,96799.13
2023-03-26T10:37:16.448Z,96806.61
2023-03-26T10:40:06.974Z,96805.05
2023-03-26T10:43:08.394Z,96803.63
2023-03-26T10:46:13.078Z,96804.88
2023-03-26T10:49:20.825Z,96804.92
2023-03-26T10:51:56.674Z,96816.25
2023-03-26T10:54:46.253Z,96813.43
2023-03-26T10:57:53.943Z,96811.36
2023-03-26T11:00:27.039Z,96804.98
2023-03-26T11:02:55.001Z,96811.80
2023-03-26T11:05:48.203Z,96811.04
2023-03-26T11:08:31.114Z,96809.75
2023-03-26T11:11:26.005Z,96803.13
2023-03-26T11:14:31.850Z,96799.03
2023-03-26T11:17:05.753Z,96797.96
2023-03-26T11:19:37.197Z,96790.41
2023-03-26T11:22:29.438Z,96784.03
2023-03-26T11:25:26.364Z,96779.66
2023-03-26T11:28:28.358Z,96782.41
2023-03-26T11:31:02.172Z,96783.14
2023-03-26T11:33:38.082Z,96777.30
2023-03-26T11:36:21.770Z,96773.06
2023-03-26T11:38:52.515Z,96777.94
2023-03-26T11:41:31.388Z,96779.40
2023-03-26T11:44:13.990Z,96777.81
2023-03-26T11:46:46.304Z,96772.18
2023-03-26T11:49:19.748Z,96767.58
2023-03-26T11:51:49.396Z,96766.54
2023-03-26T11:54:18.075Z,96760.66
2023-03-26T11:57:07.273Z,96757.70
2023-03-26T11:59:56.525Z,96756.27
2023-03-26T12:02:34.235Z,96756.83
2023-03-26T12:05:15.306Z,96759.66
2023-03-26T12:07:52.689Z,96759.70
2023-03-26T12:10:24.097Z,96767.19
2023-03-26T12:12:58.295Z,96765.45
2023-03-26T12:15:28.349Z,96758.80
2023-03-26T12:17:58.316Z,96753.15
2023-03-26T12:20:26.883Z,96748.31
2023-03-26T12:22:59.674Z,96742.55
2023-03-26T12:25:35.679Z,96743.14
2023-03-26T12:28:14.348Z,96738.99
2023-03-26T12:30:55.137Z,96735.48
2023-03-26T12:33:27.324Z,96734.95
2023-03-26T12:36:00.631Z,96732.59
2023-03-26T12:38:30.264Z,96732.16
2023-03-26T12:41:06.685Z,96731.74
2023-03-26T12:44:48.103Z,96728.71
2023-03-26T12:47:58.101Z,96725.50
2023-03-26T12:49:28.629Z,96722.55
2023-03-26T12:52:14.979Z,96720.17
2023-03-26T12:54:58.671Z,96724.73
2023-03-26T12:57:43.669Z,96723.73
2023-03-26T13:00:41.020Z,96722.30
2023-03-26T13:03:18.281Z,96715.83
2023-03-26T13:06:24.083Z,96713.73
2023-03-26T13:09:10.468Z,96710.20
2023-03-26T13:12:00.450Z,96707.33
2023-03-26T13:14:34.348Z,96704.30
2023-03-26T13:17:11.656Z,96715.66
2023-03-26T13:20:00.313Z,96712.19
2023-03-26T13:22:43.214Z,96710.00
2023-03-26T13:25:14.269Z,96709.90
2023-03-26T13:27:48.474Z,96707.62
2023-03-26T13:30:16.392Z,96704.54
2023-03-26T13:33:05.941Z,96704.77
2023-03-26T13:36:21.922Z,96702.85
2023-03-26T13:39:08.177Z,96704.54
2023-03-26T13:41:51.532Z,96704.80
2023-03-26T13:44:28.811Z,96696.95
2023-03-26T13:47:04.966Z,96696.50
2023-03-26T13:49:41.143Z,96686.19
2023-03-26T13:52:27.166Z,96681.69
2023-03-26T13:55:25.408Z,96681.67
2023-03-26T13:58:02.180Z,96682.91
2023-03-26T14:00:54.700Z,96678.08
2023-03-26T14:03:35.759Z,96673.71
2023-03-26T14:06:23.145Z,96669.17
2023-03-26T14:09:27.140Z,96669.55
2023-03-26T14:12:21.557Z,96664.34
2023-03-26T14:15:04.231Z,96660.24
2023-03-26T14:17:47.618Z,96659.34
2023-03-26T14:20:34.279Z,96653.73
2023-03-26T14:23:23.552Z,96648.10
2023-03-26T14:25:56.171Z,96639.98
2023-03-26T14:28:42.713Z,96638.61
2023-03-26T14:31:20.850Z,96637.72
2023-03-26T14:34:15.060Z,96636.53
2023-03-26T14:37:08.170Z,96643.46
2023-03-26T14:39:48.424Z,96641.27
2023-03-26T14:42:30.114Z,96639.87
2023-03-26T14:45:46.047Z,96643.71
2023-03-26T14:48:38.306Z,96646.41
2023-03-26T14:51:28.218Z,96648.80
2023-03-26T14:54:02.481Z,96647.85
2023-03-26T14:56:33.618Z,96646.27
2023-03-26T14:59:07.615Z,96644.77
2023-03-26T15:01:57.004Z,96645.10
2023-03-26T15:04:28.206Z,96646.98
2023-03-26T15:07:24.028Z,96646.21
2023-03-26T15:10:17.097Z,96646.50
2023-03-26T15:13:06.877Z,96647.26
2023-03-26T15:15:53.891Z,96653.76
2023-03-26T15:18:53.331Z,96651.56
2023-03-26T15:21:52.389Z,96649.09
2023-03-26T15:24:27.114Z,96653.13
2023-03-26T15:27:26.956Z,96652.42
2023-03-26T15:30:04.518Z,96649.45
2023-03-26T15:32:58.188Z,96650.34
2023-03-26T15:36:04.894Z,96650.66
2023-03-26T15:38:50.757Z,96643.53
2023-03-26T15:41:42.171Z,96636.52
2023-03-26T15:44:25.092Z,96636.75
2023-03-26T15:47:33.305Z,96628.07
2023-03-26T15:50:45.094Z,96624.55
2023-03-26T15:53:35.071Z,96625.10
2023-03-26T15:56:10.327Z,96624.36
2023-03-26T15:59:05.412Z,96629.34
2023-03-26T16:02:04.213Z,96634.00
2023-03-26T16:04:54.194Z,96631.98
2023-03-26T16:07:43.864Z,96635.08
2023-03-26T16:10:28.371Z,96631.32
2023-03-26T16:13:14.525Z,96629.98
2023-03-26T16:15:43.984Z,96629.26
2023-03-26T16:18:15.788Z,96628.92
2023-03-26T16:20:50.800Z,96628.92
2023-03-26T16:23:24.734Z,96624.20
2023-03-26T16:26:08.260Z,96625.06
2023-03-26T16:29:02.937Z,96621.95
2023-03-26T16:31:38.718Z,96617.94
2023-03-26T16:34:21.630Z,96624.86
2023-03-26T16:36:53.128Z,96630.68
2023-03-26T16:39:44.318Z,96632.64
2023-03-26T16:42:15.819Z,96634.66
2023-03-26T16:45:11.725Z,96633.67
2023-03-26T16:48:18.250Z,96640.67
2023-03-26T16:51:06.770Z,96647.20
2023-03-26T16:53:41.752Z,96651.36
2023-03-26T16:56:12.967Z,96656.50
2023-03-26T16:58:49.411Z,96662.25
2023-03-26T17:01:28.600Z,96664.77
2023-03-26T17:04:20.671Z,96670.59
2023-03-26T17:07:09.130Z,96676.48
2023-03-26T17:10:15.099Z,96678.34
2023-03-26T17:12:55.642Z,96685.49
2023-03-26T17:15:45.063Z,96690.89
2023-03-26T17:18:43.764Z,96695.73
2023-03-26T17:21:45.752Z,96706.45
2023-03-26T17:24:26.916Z,96707.45
2023-03-26T17:27:25.551Z,96710.73
2023-03-26T17:30:32.527Z,96716.23
2023-03-26T17:33:03.751Z,96717.56
2023-03-26T17:35:47.391Z,96713.34
2023-03-26T17:38:15.486Z,96714.20
2023-03-26T17:40:48.679Z,96708.89
2023-03-26T17:43:37.228Z,96705.17
2023-03-26T17:46:13.978Z,96701.75
2023-03-26T17:48:47.100Z,96697.01
2023-03-26T17:51:37.241Z,96694.48
2023-03-26T17:54:34.224Z,96693.52
2023-03-26T17:57:25.545Z,96693.16
2023-03-26T17:59:58.136Z,96693.27
2023-03-26T18:02:42.411Z,96694.73
2023-03-26T18:05:14.554Z,96693.56
2023-03-26T18:08:17.932Z,96689.95
2023-03-26T18:11:12.523Z,96684.58
2023-03-26T18:13:59.433Z,96678.88
2023-03-26T18:16:49.776Z,96675.95
2023-03-26T18:19:22.237Z,96674.05
2023-03-26T18:21:59.004Z,96670.08
2023-03-26T18:24:31.977Z,96667.73
2023-03-26T18:27:09.552Z,96662.61
2023-03-26T18:29:44.137Z,96665.63
2023-03-26T18:32:12.401Z,96665.40
2023-03-26T18:34:50.136Z,96662.78
2023-03-26T18:37:23.097Z,96668.00
2023-03-26T18:40:18.331Z,96664.38
2023-03-26T18:42:49.685Z,96660.52
2023-03-26T18:45:34.255Z,96662.36
2023-03-26T18:48:10.622Z,96663.91
2023-03-26T18:50:42.072Z,96661.29
2023-03-26T18:53:24.707Z,96661.15
2023-03-26T18:55:56.324Z,96662.94
2023-03-26T18:58:43.949Z,96665.68
2023-03-26T19:01:23.718Z,96660.14
2023-03-26T19:03:54.770Z,96658.63
2023-03-26T19:06:23.832Z,96658.40
2023-03-26T19:08:53.298Z,96652.32
2023-03-26T19:11:22.017Z,96650.19
2023-03-26T19:14:03.304Z,96648.52
2023-03-26T19:16:35.676Z,96647.06
2023-03-26T19:19:06.105Z,96646.36
2023-03-26T19:21:36.328Z,96641.98
2023-03-26T19:24:05.147Z,96637.63
2023-03-26T19:26:34.313Z,96637.59
2023-03-26T19:29:03.019Z,96638.88
2023-03-26T19:31:38.135Z,96629.07
2023-03-26T19:34:26.205Z,96626.15
2023-03-26T19:36:59.894Z,96627.15
2023-03-26T19:39:55.507Z,96622.92
2023-03-26T19:42:43.121Z,96626.42
2023-03-26T19:45:23.236Z,96621.24
2023-03-26T19:48:00.450Z,96618.21
2023-03-26T19:50:34.429Z,96614.48
2023-03-26T19:53:16.891Z,96608.71
2023-03-26T19:56:04.511Z,96607.35
2023-03-26T19:58:35.787Z,96604.53
2023-03-26T20:01:04.947Z,96606.06
2023-03-26T20:03:44.619Z,96604.23
2023-03-26T20:06:15.893Z,96599.41
2023-03-26T20:08:44.536Z,96596.59
2023-03-26T20:11:16.796Z,96595.80
2023-03-26T20:13:44.658Z,96593.85
2023-03-26T20:16:35.189Z,96592.74
2023-03-26T20:19:04.387Z,96589.36
2023-03-26T20:21:34.883Z,96588.13
2023-03-26T20:24:14.601Z,96588.44
2023-03-26T20:26:43.910Z,96589.77
2023-03-26T20:29:13.107Z,96584.95
2023-03-26T20:31:42.126Z,96583.33
2023-03-26T20:34:24.616Z,96586.89
2023-03-26T20:36:55.495Z,96587.02
2023-03-26T20:39:25.056Z,96581.35
2023-03-26T20:41:54.876Z,96576.12
2023-03-26T20:44:23.584Z,96572.23
2023-03-26T20:46:58.933Z,96570.05
2023-03-26T20:49:30.131Z,96565.58
2023-03-26T20:52:00.496Z,96562.73
2023-03-26T20:54:31.990Z,96560.39
2023-03-26T20:57:00.368Z,96557.61
2023-03-26T20:59:36.121Z,96558.39
2023-03-26T21:02:06.910Z,96561.57
2023-03-26T21:04:35.256Z,96555.29
2023-03-26T21:07:17.539Z,96550.65
2023-03-26T21:09:49.362Z,96548.95
2023-03-26T21:12:30.495Z,96545.84
2023-03-26T21:15:01.780Z,96539.75
2023-03-26T21:17:33.454Z,96538.46
2023-03-26T21:20:13.678Z,96541.94
2023-03-26T21:22:46.450Z,96534.38
2023-03-26T21:25:41.805Z,96533.21
2023-03-26T21:28:41.847Z,96529.61
2023-03-26T21:31:22.045Z,96523.55
2023-03-26T21:33:51.067Z,96517.60
2023-03-26T21:36:22.024Z,96516.71
2023-03-26T21:38:50.776Z,96514.21
2023-03-26T21:41:23.922Z,96513.67
2023-03-26T21:43:51.951Z,96511.13
2023-03-26T21:46:25.758Z,96512.61
2023-03-26T21:48:55.397Z,96516.12
2023-03-26T21:51:27.221Z,96511.64
2023-03-26T21:53:56.096Z,96514.94
2023-03-26T21:56:50.641Z,96506.55
2023-03-26T21:59:46.761Z,96506.27
2023-03-26T22:02:43.672Z,96507.00
2023-03-26T22:05:16.445Z,96492.52
2023-03-26T22:08:00.508Z,96484.00
2023-03-26T22:10:31.081Z,96477.09
2023-03-26T22:12:59.857Z,96473.46
2023-03-26T22:15:30.917Z,96468.60
2023-03-26T22:18:04.048Z,96455.84
2023-03-26T22:20:32.109Z,96450.04
2023-03-26T22:23:01.016Z,96445.39
2023-03-26T22:25:31.218Z,96444.33
2023-03-26T22:28:04.642Z,96443.80
2023-03-26T22:30:33.659Z,96437.45
2023-03-26T22:33:01.619Z,96427.17
2023-03-26T22:35:29.950Z,96428.73
2023-03-26T22:38:00.457Z,96430.08
2023-03-26T22:40:29.670Z,96432.10
2023-03-26T22:43:15.808Z,96433.09
2023-03-26T22:46:00.308Z,96425.28
2023-03-26T22:48:32.026Z,96427.05
2023-03-26T22:51:03.221Z,96423.10
2023-03-26T22:53:32.423Z,96422.86
2023-03-26T22:56:01.028Z,96420.48
2023-03-26T22:58:30.010Z,96418.60
2023-03-26T23:01:08.419Z,96408.59
2023-03-26T23:03:37.310Z,96406.57
2023-03-26T23:06:33.378Z,96404.11
2023-03-26T23:09:01.407Z,96400.33
2023-03-26T23:11:31.311Z,96393.00
2023-03-26T23:13:59.498Z,96388.14
2023-03-26T23:16:28.142Z,96379.22
2023-03-26T23:18:56.147Z,96378.66
2023-03-26T23:21:24.875Z,96376.81
2023-03-26T23:23:52.921Z,96377.20
2023-03-26T23:26:21.632Z,96381.88
2023-03-26T23:28:51.302Z,96379.02
2023-03-26T23:31:21.921Z,96374.36
2023-03-26T23:33:50.626Z,96374.52
2023-03-26T23:36:20.642Z,96366.58
2023-03-26T23:38:49.690Z,96367.12
2023-03-26T23:41:21.617Z,96367.10
2023-03-26T23:43:54.389Z,96360.80
2023-03-26T23:46:30.977Z,96353.92
2023-03-26T23:49:02.655Z,96343.63
2023-03-26T23:51:32.407Z,96350.45
2023-03-26T23:54:01.750Z,96356.10
2023-03-26T23:56:30.107Z,96357.25
2023-03-26T23:59:00.921Z,96354.16
